This is the latest recevied weather packets stored in our database for station/object KB9PMA-1. If no packets are shown the sender has not sent any weather packets the latest 10 day(s).
| Time | Temp. | Humidity | Pressure | Rain* | Wind** | Luminosity | Snow |
|---|---|---|---|---|---|---|---|
| 1777757884 | 12.22° C | 42% | 1018.6 hPa | 0 mm | - | - | - |
| 1777744685 | 9.44° C | 56% | 1020.1 hPa | 0 mm | - | - | - |
| 1777744085 | 10° C | 52% | 1020.3 hPa | 0 mm | - | - | - |
| 1777743485 | 9.44° C | 59% | 1020.4 hPa | 0 mm | - | - | - |
| 1777742885 | 8.89° C | 55% | 1020.3 hPa | 0 mm | - | - | - |
| 1777742285 | 9.44° C | 52% | 1020.4 hPa | 0 mm | - | - | - |
| 1777741685 | 9.44° C | 58% | 1020.5 hPa | 0 mm | - | - | - |
| 1777740485 | 8.33° C | 57% | 1020.6 hPa | 0 mm | - | - | - |
| 1777739285 | 8.33° C | 59% | 1020.7 hPa | 0 mm | - | - | - |
| 1777738685 | 8.33° C | 58% | 1020.8 hPa | 0 mm | - | - | - |
| 1777738085 | 8.33° C | 53% | 1020.7 hPa | 0 mm | - | - | - |
| 1777736885 | 9.44° C | 57% | 1020.7 hPa | 0 mm | - | - | - |
| 1777736285 | 8.89° C | 58% | 1020.8 hPa | 0 mm | - | - | - |
| 1777735985 | 8.33° C | 63% | 1020.7 hPa | 0 mm | - | - | - |
| 1777735685 | 8.33° C | 57% | 1020.7 hPa | 0 mm | - | - | - |
| 1777735385 | 8.33° C | 55% | 1020.7 hPa | 0 mm | - | - | - |
| 1777735085 | 8.89° C | 60% | 1020.8 hPa | 0 mm | - | - | - |
| 1777734785 | 8.89° C | 62% | 1020.8 hPa | 0 mm | - | - | - |
| 1777734485 | 8.33° C | 59% | 1020.8 hPa | 0 mm | - | - | - |
| 1777733885 | 8.89° C | 57% | 1020.8 hPa | 0 mm | - | - | - |
| 1777733285 | 8.33° C | 61% | 1020.7 hPa | 0 mm | - | - | - |
| 1777732685 | 8.33° C | 62% | 1020.8 hPa | 0 mm | - | - | - |
| 1777732385 | 7.78° C | 59% | 1020.9 hPa | 0 mm | - | - | - |
| 1777732085 | 7.78° C | 64% | 1020.8 hPa | 0 mm | - | - | - |
| 1777731785 | 7.78° C | 61% | 1020.9 hPa | 0 mm | - | - | - |
* Rain latest hour (hover to see other rain measurements)
** Current wind speed in m/s (hover to see current wind gust speed)